Terminal Aerodrome Forecast
Issued by NWS

Home | Current Version | Previous Version | Text Only | Print | Product List | Glossary On
Versions: 1 2 3 4 5 6 7 8 9 10 11 12 13
000
FTUS45 KTFX 281144
TAFHLN
TAF
KHLN 281144Z 2812/2912 25012G21KT P6SM SCT050 BKN090
     FM281800 28017G25KT P6SM FEW050 BKN120
     FM290000 28008KT P6SM SCT150=

USA.gov is the U.S. government's official web portal to all federal, state and local government web resources and services.